Time;durP1;ratioP1;P1;durP2;ratioP2;P2;SDS_P1;SDS_P2;PMS_P1;PMS_P2;Temp;Humidity;BMP_temperature;BMP_pressure;BME280_temperature;BME280_humidity;BME280_pressure;Samples;Min_cycle;Max_cycle;Signal;HPM_P1;HPM_P2
2022/09/02 00:01:52;;;;;;;1.90;1.42;;;23.80;68.30;;;;;;6333767;22;20022;-79
2022/09/02 00:04:22;;;;;;;2.75;1.67;;;23.70;68.10;;;;;;6336630;22;20010;-78
2022/09/02 00:06:50;;;;;;;4.00;1.80;;;23.80;68.00;;;;;;6338580;22;20002;-78
2022/09/02 00:09:19;;;;;;;2.80;1.70;;;23.70;67.30;;;;;;6336192;22;20420;-78
2022/09/02 00:11:47;;;;;;;2.92;1.85;;;23.80;67.70;;;;;;6337624;22;20093;-78
2022/09/02 00:14:16;;;;;;;3.53;1.48;;;23.60;66.40;;;;;;6352938;22;20014;-77
2022/09/02 00:16:50;;;;;;;1.55;1.27;;;23.70;67.00;;;;;;6368885;22;19995;-77
2022/09/02 00:19:17;;;;;;;3.88;1.60;;;23.80;67.10;;;;;;6367059;22;20002;-77
2022/09/02 00:21:44;;;;;;;2.33;1.20;;;23.80;66.90;;;;;;6364936;22;20436;-77
2022/09/02 00:24:10;;;;;;;2.10;1.40;;;23.90;66.80;;;;;;6368646;22;20357;-77
2022/09/02 00:26:35;;;;;;;3.90;1.55;;;23.90;66.60;;;;;;6367557;22;20005;-79
2022/09/02 00:29:01;;;;;;;2.08;1.63;;;23.90;66.10;;;;;;6365766;22;20501;-79
2022/09/02 00:31:27;;;;;;;1.98;1.60;;;23.60;66.50;;;;;;6367196;22;19998;-80
2022/09/02 00:33:54;;;;;;;1.85;1.40;;;23.70;66.80;;;;;;6369210;22;20025;-79
2022/09/02 00:36:20;;;;;;;2.60;1.45;;;23.70;66.80;;;;;;6368040;22;20050;-77
2022/09/02 00:38:46;;;;;;;3.55;1.83;;;23.70;67.00;;;;;;6368490;22;19998;-78
2022/09/02 00:41:13;;;;;;;2.35;1.45;;;23.50;67.60;;;;;;6367254;22;19994;-78
2022/09/02 00:44:00;;;;;;;1.42;1.20;;;23.30;68.70;;;;;;6369204;22;20488;-77
2022/09/02 00:46:28;;;;;;;2.60;1.30;;;23.20;69.00;;;;;;6368461;22;20432;-78
2022/09/02 00:49:16;;;;;;;2.92;1.25;;;23.30;69.10;;;;;;6369234;22;20472;-77
2022/09/02 00:51:50;;;;;;;2.20;1.60;;;23.40;70.10;;;;;;6368536;22;20002;-77
2022/09/02 00:54:17;;;;;;;3.10;1.50;;;23.30;70.20;;;;;;6369059;22;20085;-77
2022/09/02 00:56:45;;;;;;;5.10;1.35;;;23.30;70.00;;;;;;6366882;22;19998;-77
2022/09/02 00:59:21;;;;;;;3.00;1.40;;;23.40;70.30;;;;;;6367282;22;20400;-78
2022/09/02 01:01:47;;;;;;;1.95;1.13;;;23.40;70.10;;;;;;6368228;22;19994;-78
2022/09/02 01:04:15;;;;;;;5.63;1.27;;;23.50;70.50;;;;;;6368744;22;20002;-77
2022/09/02 01:06:41;;;;;;;2.25;1.25;;;23.40;70.40;;;;;;6340181;22;20293;-79
2022/09/02 01:09:11;;;;;;;2.70;1.73;;;23.40;70.40;;;;;;6368901;22;20069;-79
2022/09/02 01:11:46;;;;;;;4.32;1.92;;;23.40;70.50;;;;;;6367389;22;19999;-76
2022/09/02 01:14:14;;;;;;;2.17;1.48;;;23.30;70.60;;;;;;6368795;22;20474;-76
2022/09/02 01:16:44;;;;;;;2.13;1.35;;;23.30;70.40;;;;;;6367907;22;19995;-75
2022/09/02 01:19:24;;;;;;;1.70;1.30;;;23.30;70.70;;;;;;6368440;22;20002;-76
2022/09/02 01:21:55;;;;;;;2.70;1.30;;;23.30;70.30;;;;;;6341842;22;20313;-76
2022/09/02 01:24:24;;;;;;;2.95;1.20;;;23.40;70.30;;;;;;6367697;22;19998;-78
2022/09/02 01:26:53;;;;;;;4.80;1.10;;;23.50;70.20;;;;;;6367519;22;20014;-81
2022/09/02 01:29:19;;;;;;;3.38;1.60;;;23.50;70.10;;;;;;6367505;22;20013;-81
2022/09/02 01:31:44;;;;;;;2.53;1.60;;;23.50;69.60;;;;;;6343103;22;20075;-81
2022/09/02 01:34:10;;;;;;;2.85;1.48;;;23.40;69.60;;;;;;6370328;22;20416;-82
2022/09/02 01:36:39;;;;;;;3.13;1.50;;;23.50;69.50;;;;;;6370356;22;19998;-82
2022/09/02 01:39:05;;;;;;;3.08;1.40;;;23.40;69.50;;;;;;6368500;22;20002;-82
2022/09/02 01:41:31;;;;;;;1.85;1.40;;;23.50;69.50;;;;;;6370115;22;19999;-80
2022/09/02 01:43:56;;;;;;;0.90;0.85;;;23.50;69.40;;;;;;6342075;22;20446;-80
2022/09/02 01:46:22;;;;;;;2.53;1.02;;;23.50;69.90;;;;;;6371026;22;20435;-80
2022/09/02 01:48:49;;;;;;;3.92;1.40;;;23.50;69.70;;;;;;6370826;22;20063;-80
2022/09/02 01:51:18;;;;;;;3.75;1.48;;;23.50;69.60;;;;;;6370254;22;20005;-80
2022/09/02 01:53:45;;;;;;;2.53;1.13;;;23.60;69.60;;;;;;6369892;22;20006;-80
2022/09/02 01:56:12;;;;;;;4.35;2.00;;;23.40;70.20;;;;;;6369234;22;20221;-81
2022/09/02 01:58:37;;;;;;;4.20;1.95;;;23.40;71.10;;;;;;6368533;22;19990;-80
2022/09/02 02:01:07;;;;;;;3.05;1.90;;;23.20;72.00;;;;;;6369650;22;19998;-81
2022/09/02 02:03:34;;;;;;;3.38;1.73;;;22.60;74.80;;;;;;6368455;22;20006;-80
2022/09/02 02:06:01;;;;;;;5.10;2.65;;;22.50;76.10;;;;;;6370331;22;20025;-81
2022/09/02 02:08:27;;;;;;;1.73;1.55;;;22.30;77.10;;;;;;6369623;22;19998;-81
2022/09/02 02:10:52;;;;;;;2.55;1.60;;;22.20;77.60;;;;;;6341428;22;20013;-81
2022/09/02 02:13:18;;;;;;;3.22;1.65;;;22.10;78.30;;;;;;6340539;22;20026;-81
2022/09/02 02:15:44;;;;;;;2.42;1.60;;;22.20;78.10;;;;;;6369497;22;19994;-80
2022/09/02 02:18:11;;;;;;;2.80;1.30;;;22.40;78.30;;;;;;6369826;22;19994;-82
2022/09/02 02:20:37;;;;;;;6.03;2.00;;;22.60;77.10;;;;;;6371039;22;19995;-83
2022/09/02 02:23:05;;;;;;;3.70;2.17;;;22.50;78.40;;;;;;6370874;22;20311;-83
2022/09/02 02:25:31;;;;;;;3.03;1.60;;;22.30;79.60;;;;;;6370860;22;20026;-83
2022/09/02 02:27:57;;;;;;;1.83;1.30;;;22.40;78.50;;;;;;6369476;22;19999;-83
2022/09/02 02:30:23;;;;;;;4.80;1.67;;;22.50;78.10;;;;;;6369121;22;20321;-83
2022/09/02 02:32:49;;;;;;;4.63;2.22;;;22.70;77.80;;;;;;6370049;22;19998;-83
2022/09/02 02:35:18;;;;;;;2.50;1.40;;;22.60;78.50;;;;;;6369772;22;20539;-83
2022/09/02 02:37:47;;;;;;;1.30;1.20;;;22.70;77.80;;;;;;6368470;22;19999;-84
2022/09/02 02:40:15;;;;;;;2.95;2.08;;;22.80;77.70;;;;;;6369958;22;19998;-81
2022/09/02 02:42:40;;;;;;;4.28;1.77;;;22.50;78.90;;;;;;6370028;22;20006;-82
2022/09/02 02:45:08;;;;;;;1.95;1.33;;;22.50;78.60;;;;;;6369412;22;20005;-81
2022/09/02 02:47:36;;;;;;;1.90;1.45;;;22.50;78.60;;;;;;6369519;22;20482;-82
2022/09/02 02:50:02;;;;;;;3.83;2.15;;;22.50;78.80;;;;;;6369468;22;20002;-82
2022/09/02 02:52:28;;;;;;;2.60;1.40;;;22.30;79.10;;;;;;6370449;22;19994;-81
2022/09/02 02:54:53;;;;;;;1.88;1.20;;;22.40;78.80;;;;;;6369581;22;20009;-81
2022/09/02 02:57:19;;;;;;;2.25;1.33;;;22.50;78.40;;;;;;6370287;22;20024;-82
2022/09/02 02:59:45;;;;;;;5.25;1.98;;;22.60;78.00;;;;;;6340025;22;20136;-83
2022/09/02 03:02:10;;;;;;;2.90;1.58;;;22.50;78.30;;;;;;6368792;22;19998;-81
2022/09/02 03:04:38;;;;;;;4.68;1.70;;;22.50;78.10;;;;;;6341328;22;20029;-81
2022/09/02 03:07:05;;;;;;;2.33;1.20;;;22.70;77.80;;;;;;6370406;22;20411;-81
2022/09/02 03:09:32;;;;;;;4.55;1.67;;;22.70;77.30;;;;;;6368912;22;20127;-81
2022/09/02 03:11:58;;;;;;;3.30;1.70;;;22.80;76.80;;;;;;6369896;22;20002;-81
2022/09/02 03:14:25;;;;;;;4.85;1.60;;;22.90;76.30;;;;;;6368617;22;20089;-81
2022/09/02 03:16:51;;;;;;;1.45;1.15;;;23.00;76.00;;;;;;6370361;22;20357;-81
2022/09/02 03:19:16;;;;;;;1.40;1.00;;;23.00;75.30;;;;;;6368597;22;20005;-81
2022/09/02 03:21:42;;;;;;;1.73;1.30;;;23.00;74.90;;;;;;6369093;22;20006;-81
2022/09/02 03:24:10;;;;;;;1.80;1.15;;;23.00;73.40;;;;;;6369354;22;20412;-83
2022/09/02 03:26:36;;;;;;;2.45;1.10;;;23.00;73.90;;;;;;6368408;22;20010;-80
2022/09/02 03:29:02;;;;;;;3.25;1.45;;;23.00;73.30;;;;;;6339928;22;20002;-80
2022/09/02 03:31:28;;;;;;;2.85;1.35;;;22.80;71.70;;;;;;6369112;22;20294;-79
2022/09/02 03:33:54;;;;;;;2.17;1.30;;;22.90;72.70;;;;;;6368688;22;19998;-79
2022/09/02 03:36:26;;;;;;;3.22;1.80;;;22.70;73.30;;;;;;6369753;22;20002;-79
2022/09/02 03:38:52;;;;;;;3.70;2.05;;;22.40;74.20;;;;;;6369315;22;20069;-80
2022/09/02 03:41:18;;;;;;;4.25;1.88;;;22.20;74.80;;;;;;6369359;22;19994;-79
2022/09/02 03:43:44;;;;;;;5.72;1.95;;;22.10;75.70;;;;;;6367382;22;20002;-79
2022/09/02 03:46:10;;;;;;;4.45;1.83;;;21.90;76.30;;;;;;6369835;22;20073;-79
2022/09/02 03:48:35;;;;;;;6.28;2.50;;;21.60;77.20;;;;;;6368248;22;20419;-79
2022/09/02 03:51:01;;;;;;;4.20;2.03;;;21.30;78.30;;;;;;6369136;22;20009;-77
2022/09/02 03:53:27;;;;;;;4.45;1.90;;;21.30;79.00;;;;;;6368118;22;20459;-77
2022/09/02 03:55:53;;;;;;;4.40;2.10;;;21.10;79.90;;;;;;6370114;22;20001;-77
2022/09/02 03:58:21;;;;;;;4.07;2.17;;;20.70;81.90;;;;;;6368770;22;20002;-77
2022/09/02 04:00:51;;;;;;;3.75;1.95;;;20.60;82.80;;;;;;6367560;22;20099;-77
2022/09/02 04:03:17;;;;;;;3.35;2.15;;;20.70;83.20;;;;;;6369052;22;20073;-78
2022/09/02 04:05:46;;;;;;;4.60;1.85;;;20.70;83.00;;;;;;6368445;22;20029;-78
2022/09/02 04:08:12;;;;;;;7.93;2.35;;;20.60;83.90;;;;;;6369027;22;20006;-77
2022/09/02 04:10:38;;;;;;;2.78;2.10;;;20.60;83.70;;;;;;6340835;22;20036;-78
2022/09/02 04:13:03;;;;;;;5.78;2.25;;;20.40;84.20;;;;;;6368888;22;20089;-78
2022/09/02 04:15:29;;;;;;;2.92;2.28;;;20.30;84.40;;;;;;6368780;22;19998;-78
2022/09/02 04:17:55;;;;;;;3.78;2.05;;;20.20;85.10;;;;;;6368256;22;20047;-81
2022/09/02 04:20:21;;;;;;;4.82;2.47;;;20.30;84.90;;;;;;6367764;22;19994;-81
2022/09/02 04:22:48;;;;;;;3.05;1.85;;;20.50;84.40;;;;;;6368192;22;19999;-81
2022/09/02 04:25:13;;;;;;;5.45;2.50;;;20.50;83.90;;;;;;6340069;22;20003;-82
2022/09/02 04:27:39;;;;;;;3.53;1.92;;;20.50;83.10;;;;;;6366013;22;20788;-82
2022/09/02 04:30:07;;;;;;;3.08;1.95;;;20.40;82.40;;;;;;6337839;22;20002;-81
2022/09/02 04:32:32;;;;;;;3.70;2.17;;;20.60;82.30;;;;;;6368284;22;19999;-81
2022/09/02 04:34:58;;;;;;;2.75;1.45;;;20.80;81.20;;;;;;6367403;22;20092;-82
2022/09/02 04:37:24;;;;;;;1.85;1.52;;;21.10;81.10;;;;;;6368302;22;19994;-81
2022/09/02 04:39:51;;;;;;;5.63;2.40;;;21.20;80.10;;;;;;6340084;22;19998;-82
2022/09/02 04:42:17;;;;;;;4.97;2.28;;;21.00;79.00;;;;;;6369254;22;20409;-81
2022/09/02 04:44:45;;;;;;;3.72;2.25;;;20.60;79.90;;;;;;6368356;22;20020;-79
2022/09/02 04:47:11;;;;;;;2.38;1.40;;;20.60;80.70;;;;;;6369566;22;20006;-80
2022/09/02 04:49:36;;;;;;;3.00;1.48;;;20.80;80.30;;;;;;6367544;22;20431;-81
2022/09/02 04:52:02;;;;;;;9.02;2.50;;;21.00;79.80;;;;;;6368955;22;20009;-83
2022/09/02 04:54:29;;;;;;;2.35;1.85;;;21.10;78.60;;;;;;6368282;22;20085;-80
2022/09/02 04:56:55;;;;;;;2.28;1.65;;;21.10;78.80;;;;;;6368420;22;20013;-81
2022/09/02 04:59:20;;;;;;;2.55;1.73;;;21.30;78.80;;;;;;6367168;22;19999;-82
2022/09/02 05:01:48;;;;;;;2.13;1.50;;;21.50;78.40;;;;;;6365996;22;19998;-81
2022/09/02 05:04:14;;;;;;;3.40;1.70;;;21.60;77.30;;;;;;6367989;22;20022;-80
2022/09/02 05:06:40;;;;;;;5.03;2.28;;;21.70;77.70;;;;;;6370013;22;20006;-80
2022/09/02 05:09:07;;;;;;;3.40;1.50;;;21.80;76.30;;;;;;6370948;22;20002;-81
2022/09/02 05:11:33;;;;;;;2.65;1.65;;;21.80;76.30;;;;;;6370235;22;20017;-81
2022/09/02 05:14:03;;;;;;;2.63;1.33;;;21.70;76.10;;;;;;6370832;22;20025;-82
2022/09/02 05:16:39;;;;;;;1.60;1.23;;;21.90;76.20;;;;;;6371126;22;20440;-82
2022/09/02 05:19:06;;;;;;;2.40;1.88;;;22.00;76.50;;;;;;6371518;22;20419;-83
2022/09/02 05:21:32;;;;;;;3.10;1.40;;;22.00;74.70;;;;;;6371204;22;20003;-84
2022/09/02 05:23:57;;;;;;;1.58;1.40;;;22.10;75.00;;;;;;6371846;22;20368;-86
2022/09/02 05:26:23;;;;;;;6.93;1.70;;;22.20;75.30;;;;;;6370586;22;20006;-83
2022/09/02 05:28:52;;;;;;;3.15;1.20;;;22.10;74.20;;;;;;6370609;22;20083;-81
2022/09/02 05:31:19;;;;;;;4.50;1.95;;;22.20;74.80;;;;;;6370068;22;19999;-81
2022/09/02 05:33:45;;;;;;;1.65;1.40;;;22.30;74.60;;;;;;6371145;22;20002;-81
2022/09/02 05:36:16;;;;;;;3.33;1.38;;;22.40;74.40;;;;;;6342566;22;20085;-81
2022/09/02 05:38:44;;;;;;;3.08;1.10;;;22.50;73.90;;;;;;6371317;22;20002;-81
2022/09/02 05:41:29;;;;;;;4.45;2.00;;;22.50;73.20;;;;;;6371215;22;20005;-84
2022/09/02 05:43:57;;;;;;;4.28;1.58;;;22.50;71.70;;;;;;6371343;22;19998;-89
2022/09/02 05:46:24;;;;;;;1.75;1.20;;;22.50;72.60;;;;;;6371146;22;20010;-80
2022/09/02 05:49:16;;;;;;;3.45;1.60;;;22.60;72.60;;;;;;6370190;22;19998;-80
2022/09/02 05:51:51;;;;;;;4.25;2.08;;;22.60;72.20;;;;;;6342654;22;20531;-83
2022/09/02 05:54:33;;;;;;;2.03;1.38;;;22.70;71.70;;;;;;6370389;22;19998;-83
2022/09/02 05:57:09;;;;;;;2.80;1.50;;;22.60;71.40;;;;;;6371388;22;20325;-83
2022/09/02 05:59:38;;;;;;;3.70;1.15;;;22.70;71.60;;;;;;6369628;22;20052;-83
2022/09/02 06:02:05;;;;;;;2.75;1.60;;;22.70;71.60;;;;;;6342240;22;20433;-84
2022/09/02 06:04:31;;;;;;;3.08;1.48;;;22.80;71.50;;;;;;6370726;22;19998;-82
2022/09/02 06:06:57;;;;;;;1.90;1.08;;;22.80;70.90;;;;;;6371168;22;19998;-85
2022/09/02 06:09:39;;;;;;;5.13;1.80;;;22.90;71.20;;;;;;6370943;22;20006;-83
2022/09/02 06:12:06;;;;;;;2.55;1.20;;;22.90;70.00;;;;;;6370511;22;20006;-83
2022/09/02 06:14:32;;;;;;;3.85;1.45;;;22.90;70.40;;;;;;6343520;22;20065;-84
2022/09/02 06:16:58;;;;;;;2.47;1.30;;;23.00;69.20;;;;;;6370887;22;20416;-83
2022/09/02 06:19:25;;;;;;;2.92;1.45;;;23.00;70.00;;;;;;6370450;22;19999;-83
2022/09/02 06:21:53;;;;;;;5.13;1.20;;;23.00;68.20;;;;;;6370767;22;20487;-83
2022/09/02 06:24:19;;;;;;;6.05;1.50;;;23.00;68.60;;;;;;6371552;22;20002;-84
2022/09/02 06:26:44;;;;;;;1.88;1.20;;;23.00;68.30;;;;;;6369405;22;20009;-83
2022/09/02 06:29:11;;;;;;;2.97;1.45;;;22.90;68.00;;;;;;6370716;22;20020;-85
2022/09/02 06:31:39;;;;;;;3.55;1.20;;;23.00;68.30;;;;;;6372144;22;20006;-85
2022/09/02 06:34:05;;;;;;;1.88;1.20;;;23.00;68.20;;;;;;6371787;22;20048;-85
2022/09/02 06:36:31;;;;;;;3.33;1.67;;;23.10;68.10;;;;;;6371356;22;19998;-85
2022/09/02 06:38:59;;;;;;;1.63;1.05;;;23.10;67.80;;;;;;6371823;22;20398;-85
2022/09/02 06:41:28;;;;;;;2.30;1.08;;;23.10;66.70;;;;;;6371513;22;20002;-86
2022/09/02 06:44:01;;;;;;;2.67;1.08;;;23.20;66.90;;;;;;6371985;22;20003;-83
2022/09/02 06:46:34;;;;;;;2.55;1.15;;;23.20;66.70;;;;;;6371830;22;20004;-85
2022/09/02 06:49:00;;;;;;;2.30;1.02;;;23.20;65.90;;;;;;6371554;22;20058;-85
2022/09/02 06:51:30;;;;;;;1.38;1.08;;;23.30;65.90;;;;;;6371104;22;20009;-85
2022/09/02 06:53:56;;;;;;;2.72;1.73;;;23.30;65.90;;;;;;6343496;22;20317;-85
2022/09/02 06:56:22;;;;;;;4.70;1.20;;;23.30;65.60;;;;;;6370979;22;20002;-85
2022/09/02 06:58:48;;;;;;;3.13;1.58;;;23.20;63.50;;;;;;6370891;22;20325;-84
2022/09/02 07:01:19;;;;;;;4.07;1.42;;;23.30;65.30;;;;;;6371523;22;19995;-85
2022/09/02 07:06:35;;;;;;;1.95;1.30;;;23.20;65.20;;;;;;6370072;22;20094;-85
2022/09/02 07:09:01;;;;;;;2.15;1.40;;;23.30;65.30;;;;;;6370391;22;19998;-86
2022/09/02 07:11:26;;;;;;;3.20;1.10;;;23.40;64.90;;;;;;6370229;22;20007;-85
2022/09/02 07:13:52;;;;;;;2.17;1.13;;;23.40;64.70;;;;;;6370334;22;20072;-85
2022/09/02 07:16:20;;;;;;;2.78;0.98;;;23.50;65.00;;;;;;6371019;22;19998;-86
2022/09/02 07:18:46;;;;;;;1.23;0.93;;;23.60;64.80;;;;;;6370670;22;20001;-86
2022/09/02 07:21:14;;;;;;;1.10;0.80;;;23.70;64.40;;;;;;6371319;22;19999;-85
2022/09/02 07:23:40;;;;;;;1.25;0.80;;;23.80;64.10;;;;;;6371039;22;20002;-85
2022/09/02 07:26:15;;;;;;;1.77;1.17;;;23.90;62.70;;;;;;6370973;22;20002;-86
2022/09/02 07:28:42;;;;;;;2.63;1.08;;;23.90;62.00;;;;;;6370379;22;19998;-84
2022/09/02 07:31:12;;;;;;;0.88;0.80;;;23.90;61.40;;;;;;6370976;22;20047;-85
2022/09/02 07:33:38;;;;;;;2.03;1.20;;;23.90;61.30;;;;;;6370745;22;20025;-84
2022/09/02 07:36:05;;;;;;;4.60;1.08;;;24.00;60.60;;;;;;6370951;22;20463;-83
2022/09/02 07:38:32;;;;;;;1.85;1.20;;;24.00;58.70;;;;;;6368651;22;19994;-84
2022/09/02 07:40:59;;;;;;;1.52;0.98;;;24.10;59.50;;;;;;6366805;22;20051;-83
2022/09/02 07:43:26;;;;;;;4.20;1.52;;;24.10;59.80;;;;;;6368830;22;20420;-84
2022/09/02 07:45:54;;;;;;;2.45;0.98;;;24.20;59.80;;;;;;6341663;22;20059;-85
2022/09/02 07:48:21;;;;;;;1.17;0.80;;;24.10;58.50;;;;;;6370919;22;20013;-84
2022/09/02 07:50:47;;;;;;;2.15;1.10;;;24.20;59.60;;;;;;6370892;22;20012;-84
2022/09/02 07:53:15;;;;;;;4.22;1.02;;;24.20;59.70;;;;;;6370573;22;20006;-84
2022/09/02 07:55:42;;;;;;;3.33;1.23;;;24.20;58.80;;;;;;6370320;22;20864;-84
2022/09/02 07:58:09;;;;;;;2.28;0.75;;;24.20;58.50;;;;;;6370909;22;19998;-85
2022/09/02 08:00:36;;;;;;;1.92;1.00;;;24.30;58.50;;;;;;6370618;22;19998;-85
2022/09/02 08:03:02;;;;;;;2.15;0.95;;;24.30;57.80;;;;;;6370447;22;20006;-85
2022/09/02 08:05:30;;;;;;;1.23;0.82;;;24.40;58.40;;;;;;6370690;22;20002;-85
2022/09/02 08:07:56;;;;;;;2.05;0.70;;;24.50;58.20;;;;;;6370682;22;19994;-84
2022/09/02 08:10:24;;;;;;;3.78;0.95;;;24.50;58.30;;;;;;6370781;22;20454;-84
2022/09/02 08:12:50;;;;;;;1.23;0.77;;;24.50;58.20;;;;;;6370331;22;20006;-85
2022/09/02 08:15:18;;;;;;;2.33;0.80;;;24.50;57.40;;;;;;6369775;22;20081;-85
2022/09/02 08:17:45;;;;;;;2.35;0.70;;;24.60;57.20;;;;;;6370966;22;19999;-84
2022/09/02 08:20:11;;;;;;;1.73;0.90;;;24.60;57.80;;;;;;6370358;22;19994;-85
2022/09/02 08:22:37;;;;;;;2.78;0.80;;;24.70;58.30;;;;;;6370148;22;20389;-85
2022/09/02 08:25:04;;;;;;;1.98;0.80;;;24.80;58.00;;;;;;6370538;22;19998;-85
2022/09/02 08:27:31;;;;;;;9.68;1.40;;;24.80;57.80;;;;;;6369056;22;20672;-84
2022/09/02 08:29:57;;;;;;;3.65;0.98;;;24.70;54.30;;;;;;6369669;22;20004;-85
2022/09/02 08:32:23;;;;;;;1.48;0.60;;;24.60;53.40;;;;;;6369269;22;20029;-84
2022/09/02 08:34:49;;;;;;;3.20;0.88;;;24.70;55.80;;;;;;6370240;22;20006;-85
2022/09/02 08:37:17;;;;;;;2.50;0.98;;;24.80;56.10;;;;;;6370715;22;19998;-84
2022/09/02 08:39:44;;;;;;;2.75;0.90;;;24.80;55.00;;;;;;6342571;22;20443;-84
2022/09/02 08:42:19;;;;;;;1.40;0.93;;;24.90;55.60;;;;;;6370598;22;19999;-85
2022/09/02 08:44:46;;;;;;;2.75;0.80;;;25.00;55.00;;;;;;6370932;22;20502;-85
2022/09/02 08:47:21;;;;;;;1.13;0.95;;;25.00;54.80;;;;;;6342760;22;20290;-85
2022/09/02 08:49:54;;;;;;;1.95;0.70;;;25.20;55.00;;;;;;6369948;22;20002;-85
2022/09/02 08:52:35;;;;;;;1.42;0.90;;;25.30;55.30;;;;;;6342304;22;20092;-85
2022/09/02 08:55:02;;;;;;;1.25;0.60;;;25.30;53.80;;;;;;6342181;22;20010;-85
2022/09/02 08:57:29;;;;;;;3.85;1.20;;;25.40;54.80;;;;;;6369796;22;20069;-85
2022/09/02 08:59:59;;;;;;;2.35;1.27;;;25.50;54.10;;;;;;6370127;22;20006;-85
2022/09/02 09:02:36;;;;;;;1.20;0.88;;;25.50;51.90;;;;;;6369794;22;20033;-81
2022/09/02 09:05:05;;;;;;;3.05;0.93;;;25.60;53.30;;;;;;6369124;22;20003;-82
2022/09/02 09:08:08;;;;;;;1.73;0.80;;;25.70;53.90;;;;;;6369385;22;20053;-82
2022/09/02 09:10:34;;;;;;;1.15;0.80;;;25.70;53.70;;;;;;6338310;22;20009;-83
2022/09/02 09:13:47;;;;;;;1.67;0.93;;;25.90;52.90;;;;;;6368427;22;20006;-82
2022/09/02 09:16:37;;;;;;;4.47;0.80;;;26.10;51.80;;;;;;6250424;22;20014;-82
2022/09/02 09:19:13;;;;;;;;;;;26.00;52.70;;;;;;6369410;22;20071;-83
2022/09/02 09:21:41;;;;;;;1.75;0.60;;;26.10;53.00;;;;;;6367673;22;19902;-83
2022/09/02 09:24:29;;;;;;;1.40;0.75;;;26.20;52.40;;;;;;6368360;22;20014;-83
2022/09/02 09:26:56;;;;;;;0.90;0.65;;;26.20;50.20;;;;;;6368510;22;20024;-82
2022/09/02 09:29:22;;;;;;;7.53;0.90;;;26.30;51.90;;;;;;6369001;22;20070;-83
2022/09/02 09:31:57;;;;;;;1.38;0.90;;;26.30;49.70;;;;;;6369195;22;20022;-83
2022/09/02 09:34:23;;;;;;;1.88;0.77;;;26.30;49.50;;;;;;6368749;22;20010;-84
2022/09/02 09:36:52;;;;;;;1.85;1.00;;;26.40;50.60;;;;;;6369361;22;20002;-84
2022/09/02 09:39:25;;;;;;;1.02;0.65;;;26.60;49.10;;;;;;6369832;22;20014;-84
2022/09/02 09:42:00;;;;;;;1.08;0.77;;;26.70;49.80;;;;;;6369729;22;19998;-83
2022/09/02 09:44:46;;;;;;;1.98;0.77;;;26.90;50.10;;;;;;6369819;22;20003;-83
2022/09/02 09:47:22;;;;;;;0.68;0.63;;;26.90;49.20;;;;;;6368783;22;19998;-84
2022/09/02 09:49:53;;;;;;;1.42;0.70;;;27.10;49.60;;;;;;6341078;22;20003;-84
2022/09/02 09:52:23;;;;;;;1.20;0.80;;;27.40;50.10;;;;;;6370425;22;19999;-84
2022/09/02 09:55:14;;;;;;;2.03;1.80;;;27.60;50.20;;;;;;6371166;22;20409;-84
2022/09/02 09:57:43;;;;;;;2.55;0.90;;;27.80;47.60;;;;;;6370995;22;20002;-84
2022/09/02 10:00:32;;;;;;;3.08;0.75;;;27.80;49.00;;;;;;6369904;22;20009;-84
2022/09/02 10:03:00;;;;;;;3.00;1.10;;;28.00;49.20;;;;;;6366456;22;20048;-84
2022/09/02 10:05:27;;;;;;;2.55;0.73;;;27.90;47.70;;;;;;6370517;22;20039;-84
2022/09/02 10:07:57;;;;;;;2.50;0.70;;;28.00;48.80;;;;;;6371062;22;20451;-84
2022/09/02 10:10:25;;;;;;;1.08;0.70;;;28.00;48.60;;;;;;6370057;22;19998;-84
2022/09/02 10:12:54;;;;;;;2.78;0.90;;;28.10;48.10;;;;;;6370780;22;20070;-84
2022/09/02 10:15:57;;;;;;;1.90;0.70;;;28.00;45.90;;;;;;6370548;22;20010;-84
2022/09/02 10:18:39;;;;;;;3.05;0.82;;;28.00;47.70;;;;;;6313797;22;20059;-84
2022/09/02 10:21:23;;;;;;;2.25;0.93;;;28.20;47.70;;;;;;6370918;22;20005;-85
2022/09/02 10:23:52;;;;;;;2.10;0.80;;;28.50;47.10;;;;;;6369734;22;20006;-84
2022/09/02 10:26:24;;;;;;;1.58;0.90;;;28.60;47.00;;;;;;6370772;22;20095;-86
2022/09/02 10:29:12;;;;;;;4.18;0.93;;;28.80;45.90;;;;;;6370609;22;20006;-81
2022/09/02 10:31:51;;;;;;;1.92;0.95;;;29.00;46.00;;;;;;6370284;22;20055;-81
2022/09/02 10:34:39;;;;;;;2.70;1.08;;;29.20;46.30;;;;;;6370752;22;20439;-82
2022/09/02 10:37:22;;;;;;;0.95;0.63;;;29.20;44.90;;;;;;6369822;22;20006;-81
2022/09/02 10:39:51;;;;;;;2.05;1.00;;;29.30;45.60;;;;;;6370058;22;20070;-81
2022/09/02 10:42:17;;;;;;;1.92;1.33;;;29.40;44.30;;;;;;6370696;22;20073;-81
2022/09/02 10:45:10;;;;;;;3.60;0.80;;;29.50;44.70;;;;;;6371438;22;20026;-81
2022/09/02 10:47:39;;;;;;;1.25;0.70;;;28.90;43.20;;;;;;6370966;22;20060;-81
2022/09/02 10:50:10;;;;;;;7.15;0.80;;;29.00;44.90;;;;;;6371404;22;20022;-82
2022/09/02 10:52:41;;;;;;;1.27;0.80;;;29.20;44.60;;;;;;6371022;22;19998;-82
2022/09/02 10:55:18;;;;;;;0.95;0.60;;;29.50;43.90;;;;;;6371103;22;20010;-81
2022/09/02 10:57:58;;;;;;;2.35;0.70;;;29.70;44.30;;;;;;6370754;22;19998;-82
2022/09/02 11:00:25;;;;;;;;;;;29.90;44.30;;;;;;6371943;22;20079;-82
2022/09/02 11:03:22;;;;;;;2.72;0.80;;;30.00;43.80;;;;;;6370357;22;19971;-81
2022/09/02 11:06:21;;;;;;;5.85;1.00;;;30.30;44.30;;;;;;6371293;22;20496;-82
2022/09/02 11:09:12;;;;;;;6.68;0.90;;;30.50;44.30;;;;;;6371041;22;20006;-81
2022/09/02 11:11:54;;;;;;;0.85;0.73;;;30.70;43.70;;;;;;6287717;22;20358;-82
2022/09/02 11:14:32;;;;;;;1.85;0.70;;;30.90;43.60;;;;;;6370195;22;20010;-81
2022/09/02 11:17:07;;;;;;;1.90;0.80;;;31.10;43.00;;;;;;6342049;22;20003;-82
2022/09/02 11:20:09;;;;;;;9.23;0.98;;;31.30;41.20;;;;;;6340946;22;20424;-82
2022/09/02 11:22:56;;;;;;;1.77;0.73;;;31.50;43.00;;;;;;6368875;22;20312;-84
2022/09/02 11:25:40;;;;;;;2.72;0.90;;;31.60;42.60;;;;;;6337164;22;20867;-83
2022/09/02 11:28:26;;;;;;;2.05;0.88;;;31.80;41.60;;;;;;6370110;22;20476;-83
2022/09/02 11:31:06;;;;;;;0.82;0.55;;;31.90;42.10;;;;;;6369045;22;20002;-83
2022/09/02 11:34:22;;;;;;;1.50;0.63;;;32.00;41.30;;;;;;6370258;22;19998;-84
2022/09/02 11:36:48;;;;;;;1.42;0.88;;;31.90;39.80;;;;;;6335484;22;20629;-83
2022/09/02 11:39:29;;;;;;;0.75;0.65;;;31.60;40.00;;;;;;6368500;22;20002;-83
2022/09/02 11:41:57;;;;;;;2.45;0.88;;;31.50;40.60;;;;;;6369103;22;19999;-84
2022/09/02 11:44:39;;;;;;;1.08;0.68;;;31.60;41.20;;;;;;6369382;22;20443;-83
2022/09/02 11:47:30;;;;;;;1.83;1.10;;;31.60;40.50;;;;;;6370082;22;20069;-83
2022/09/02 11:50:26;;;;;;;0.70;0.65;;;31.80;40.70;;;;;;6369564;22;20003;-84
2022/09/02 11:53:03;;;;;;;2.45;0.98;;;32.00;40.90;;;;;;6370277;22;20002;-83
2022/09/02 11:55:32;;;;;;;2.58;0.98;;;32.40;40.60;;;;;;6369393;22;20052;-81
2022/09/02 11:57:58;;;;;;;2.55;0.98;;;32.70;40.40;;;;;;6370505;22;20055;-83
2022/09/02 12:00:29;;;;;;;2.67;0.90;;;32.90;40.30;;;;;;6369381;22;20075;-82
2022/09/02 12:03:04;;;;;;;2.55;0.70;;;33.00;39.50;;;;;;6370636;22;19998;-83
2022/09/02 12:05:30;;;;;;;2.78;0.95;;;33.20;39.40;;;;;;6369723;22;19994;-83
2022/09/02 12:08:03;;;;;;;2.53;0.82;;;33.00;36.40;;;;;;6341974;22;20005;-83
2022/09/02 12:10:47;;;;;;;0.88;0.60;;;31.80;37.20;;;;;;6370119;22;20409;-83
2022/09/02 12:13:36;;;;;;;0.85;0.75;;;31.80;38.90;;;;;;6368305;22;19998;-84
2022/09/02 12:16:22;;;;;;;0.75;0.52;;;32.40;39.60;;;;;;6369806;22;20025;-84
2022/09/02 12:18:54;;;;;;;0.90;0.75;;;32.90;38.60;;;;;;6369171;22;20009;-83
2022/09/02 12:21:30;;;;;;;1.75;0.65;;;33.30;38.00;;;;;;6369652;22;20006;-83
2022/09/02 12:23:58;;;;;;;3.17;1.00;;;33.50;38.50;;;;;;6368099;22;20021;-84
2022/09/02 12:26:29;;;;;;;1.27;0.93;;;33.40;37.80;;;;;;6369803;22;20026;-86
2022/09/02 12:29:18;;;;;;;2.03;0.93;;;33.60;38.20;;;;;;6368613;22;19998;-86
2022/09/02 12:31:51;;;;;;;2.78;1.00;;;32.60;35.50;;;;;;6369936;22;20409;-83
2022/09/02 12:34:23;;;;;;;3.80;0.93;;;32.10;36.50;;;;;;6368565;22;20026;-84
2022/09/02 12:36:57;;;;;;;2.67;1.25;;;31.40;36.90;;;;;;6341277;22;20627;-85
2022/09/02 12:39:29;;;;;;;3.00;1.10;;;31.40;38.50;;;;;;6340688;22;20048;-85
2022/09/02 12:42:01;;;;;;;2.88;1.10;;;31.90;39.00;;;;;;6339939;22;20002;-84
2022/09/02 12:44:50;;;;;;;1.65;0.75;;;32.20;38.20;;;;;;6362473;22;20074;-84
2022/09/02 12:47:18;;;;;;;1.40;0.70;;;32.40;38.70;;;;;;6339315;22;20006;-83
2022/09/02 12:50:05;;;;;;;1.65;0.80;;;32.70;38.70;;;;;;6367866;22;20006;-84
2022/09/02 12:52:36;;;;;;;1.83;0.80;;;33.10;37.70;;;;;;6368054;22;20070;-84
2022/09/02 12:55:08;;;;;;;2.58;1.00;;;33.10;36.80;;;;;;6368685;22;20005;-85
2022/09/02 12:57:42;;;;;;;4.60;1.27;;;32.70;37.80;;;;;;6369124;22;19999;-86
2022/09/02 13:00:27;;;;;;;2.30;1.20;;;32.40;37.40;;;;;;6368786;22;20002;-86
2022/09/02 13:03:40;;;;;;;0.73;0.73;;;31.80;38.30;;;;;;6341487;22;20006;-86
2022/09/02 13:06:28;;;;;;;2.30;1.00;;;31.80;39.40;;;;;;6340762;22;20078;-87
2022/09/02 13:09:20;;;;;;;1.92;0.95;;;31.90;39.60;;;;;;6370005;22;20069;-86
2022/09/02 13:12:09;;;;;;;1.52;0.80;;;31.60;39.70;;;;;;6367939;22;19994;-83